createdAt,value
2022-09-06T00:01:18.719Z,88.99
2022-09-06T00:03:48.283Z,88.27
2022-09-06T00:06:25.194Z,87.97
2022-09-06T00:08:59.561Z,88.56
2022-09-06T00:11:29.018Z,89.93
2022-09-06T00:13:58.143Z,90.17
2022-09-06T00:16:34.425Z,90.73
2022-09-06T00:19:03.678Z,90.63
2022-09-06T00:21:35.253Z,91.27
2022-09-06T00:24:10.436Z,90.91
2022-09-06T00:26:44.623Z,90.94
2022-09-06T00:29:13.951Z,91.57
2022-09-06T00:31:45.217Z,91.83
2022-09-06T00:34:14.372Z,91.91
2022-09-06T00:36:43.479Z,91.98
2022-09-06T00:39:17.726Z,92.77
2022-09-06T00:41:47.096Z,93.05
2022-09-06T00:44:16.207Z,92.97
2022-09-06T00:46:50.601Z,92.48
2022-09-06T00:49:25.916Z,92.08
2022-09-06T00:51:57.289Z,92.78
2022-09-06T00:54:32.619Z,92.88
2022-09-06T00:57:07.379Z,92.48
2022-09-06T00:59:41.897Z,92.69
2022-09-06T01:02:13.281Z,92.89
2022-09-06T01:04:47.704Z,92.82
2022-09-06T01:07:35.860Z,92.64
2022-09-06T01:10:27.601Z,92.54
2022-09-06T01:13:05.974Z,92.21
2022-09-06T01:15:43.183Z,92.04
2022-09-06T01:18:26.162Z,92.08
2022-09-06T01:21:09.316Z,91.99
2022-09-06T01:24:12.468Z,92.46
2022-09-06T01:27:06.131Z,92.60
2022-09-06T01:29:43.149Z,92.55
2022-09-06T01:32:28.269Z,91.96
2022-09-06T01:37:41.077Z,91.53
2022-09-06T01:40:10.987Z,91.78
2022-09-06T01:42:43.339Z,91.40
2022-09-06T01:45:18.942Z,91.54
2022-09-06T01:47:59.464Z,91.48
2022-09-06T01:50:58.239Z,92.15
2022-09-06T01:54:01.788Z,92.16
2022-09-06T01:56:40.075Z,91.88
2022-09-06T01:59:42.668Z,92.69
2022-09-06T02:02:19.851Z,92.36
2022-09-06T02:04:59.616Z,91.46
2022-09-06T02:07:31.677Z,92.01
2022-09-06T02:10:22.653Z,92.32
2022-09-06T02:12:55.656Z,91.84
2022-09-06T02:15:27.630Z,91.64
2022-09-06T02:18:02.777Z,91.52
2022-09-06T02:23:24.200Z,91.89
2022-09-06T02:26:01.397Z,91.92
2022-09-06T02:28:30.886Z,92.03
2022-09-06T02:31:04.728Z,92.53
2022-09-06T02:33:37.806Z,92.62
2022-09-06T02:36:10.966Z,92.08
2022-09-06T02:38:43.402Z,91.84
2022-09-06T02:41:14.536Z,92.23
2022-09-06T02:43:49.052Z,92.37
2022-09-06T02:46:18.350Z,92.35
2022-09-06T02:48:49.728Z,93.14
2022-09-06T02:51:20.217Z,92.96
2022-09-06T02:53:49.520Z,93.15
2022-09-06T02:56:18.792Z,92.79
2022-09-06T02:58:49.480Z,92.58
2022-09-06T03:01:18.566Z,92.91
2022-09-06T03:03:55.603Z,92.69
2022-09-06T03:06:24.351Z,92.08
2022-09-06T03:08:53.574Z,91.90
2022-09-06T03:11:23.350Z,92.60
2022-09-06T03:13:52.831Z,92.35
2022-09-06T03:16:33.765Z,92.41
2022-09-06T03:19:05.598Z,92.70
2022-09-06T03:21:39.864Z,92.90
2022-09-06T03:24:09.286Z,92.66
2022-09-06T03:26:43.869Z,92.28
2022-09-06T03:29:13.097Z,91.77
2022-09-06T03:31:42.217Z,91.30
2022-09-06T03:34:13.567Z,90.76
2022-09-06T03:36:47.973Z,90.58
2022-09-06T03:39:22.334Z,90.42
2022-09-06T03:41:51.550Z,89.53
2022-09-06T03:44:20.624Z,89.01
2022-09-06T03:46:51.204Z,89.03
2022-09-06T03:49:22.486Z,88.18
2022-09-06T03:51:56.750Z,87.44
2022-09-06T03:54:28.117Z,86.49
2022-09-06T03:56:57.478Z,86.14
2022-09-06T03:59:26.556Z,85.80
2022-09-06T04:01:56.239Z,85.58
2022-09-06T04:04:27.425Z,84.36
2022-09-06T04:06:56.717Z,83.93
2022-09-06T04:09:26.075Z,83.43
2022-09-06T04:11:55.681Z,83.57
2022-09-06T04:14:24.962Z,83.30
2022-09-06T04:16:54.328Z,83.02
2022-09-06T04:19:23.603Z,82.42
2022-09-06T04:21:54.983Z,82.43
2022-09-06T04:24:30.775Z,82.50
2022-09-06T04:27:00.062Z,82.48
2022-09-06T04:29:30.700Z,81.26
2022-09-06T04:32:04.861Z,80.92
2022-09-06T04:34:39.143Z,79.92
2022-09-06T04:37:11.051Z,80.35
2022-09-06T04:39:40.410Z,80.33
2022-09-06T04:42:09.998Z,80.28
2022-09-06T04:44:39.291Z,79.92
2022-09-06T04:47:14.547Z,78.95
2022-09-06T04:49:44.128Z,78.56
2022-09-06T04:52:15.233Z,78.39
2022-09-06T04:54:44.623Z,77.76
2022-09-06T04:57:13.847Z,76.89
2022-09-06T05:02:17.921Z,76.12
2022-09-06T05:04:53.216Z,76.53
2022-09-06T05:07:24.530Z,76.71
2022-09-06T05:09:53.888Z,76.09
2022-09-06T05:12:23.242Z,75.95
2022-09-06T05:14:52.385Z,74.26
2022-09-06T05:17:21.516Z,73.32
2022-09-06T05:19:50.854Z,73.11
2022-09-06T05:22:20.172Z,72.18
2022-09-06T05:25:02.141Z,72.42
2022-09-06T05:27:32.823Z,72.22
2022-09-06T05:30:03.125Z,72.93
2022-09-06T05:32:33.614Z,73.46
2022-09-06T05:35:02.961Z,73.05
2022-09-06T05:37:42.231Z,71.95
2022-09-06T05:40:13.907Z,72.82
2022-09-06T05:42:43.386Z,72.08
2022-09-06T05:45:12.970Z,70.73
2022-09-06T05:47:42.186Z,70.44
2022-09-06T05:50:16.606Z,69.80
2022-09-06T05:52:47.137Z,69.36
2022-09-06T05:55:18.473Z,68.87
2022-09-06T05:57:52.730Z,68.91
2022-09-06T06:00:22.670Z,68.71
2022-09-06T06:02:52.137Z,68.71
2022-09-06T06:05:22.503Z,67.94
2022-09-06T06:07:51.749Z,67.81
2022-09-06T06:10:22.879Z,66.60
2022-09-06T06:12:52.172Z,67.26
2022-09-06T06:15:21.310Z,66.70
2022-09-06T06:17:51.028Z,67.33
2022-09-06T06:20:20.248Z,65.99
2022-09-06T06:22:49.570Z,65.63
2022-09-06T06:25:22.678Z,64.51
2022-09-06T06:27:54.039Z,64.00
2022-09-06T06:30:23.299Z,63.45
2022-09-06T06:32:52.406Z,63.05
2022-09-06T06:35:22.547Z,63.48
2022-09-06T06:37:51.776Z,63.25
2022-09-06T06:40:21.690Z,63.92
2022-09-06T06:42:50.745Z,64.68
2022-09-06T06:45:22.083Z,66.77
2022-09-06T06:47:53.370Z,67.03
2022-09-06T06:50:22.693Z,68.65
2022-09-06T06:52:51.771Z,69.97
2022-09-06T06:55:21.062Z,71.08
2022-09-06T06:57:50.141Z,72.21
2022-09-06T07:00:24.037Z,72.49
2022-09-06T07:02:56.432Z,72.77
2022-09-06T07:08:15.512Z,71.61
2022-09-06T07:10:44.742Z,70.80
2022-09-06T07:13:19.123Z,70.19
2022-09-06T07:15:50.286Z,69.85
2022-09-06T07:18:20.360Z,69.86
2022-09-06T07:26:34.046Z,69.50
2022-09-06T07:29:07.165Z,68.47
2022-09-06T07:34:37.413Z,67.22
2022-09-06T07:37:07.268Z,66.58
2022-09-06T07:39:36.663Z,65.15
2022-09-06T07:42:06.874Z,64.62
2022-09-06T07:44:41.034Z,63.96
2022-09-06T07:53:11.963Z,62.99
2022-09-06T07:55:43.007Z,63.77
2022-09-06T07:58:12.785Z,64.43
2022-09-06T08:00:42.888Z,64.60
2022-09-06T08:03:14.341Z,62.85
2022-09-06T08:11:23.232Z,60.73
2022-09-06T08:13:54.395Z,62.50
2022-09-06T08:16:25.126Z,64.35
2022-09-06T08:18:58.862Z,64.68
2022-09-06T08:21:29.991Z,64.32
2022-09-06T08:24:01.626Z,63.78
2022-09-06T08:26:33.131Z,62.02
2022-09-06T08:29:05.556Z,63.99
2022-09-06T08:31:36.144Z,66.21
2022-09-06T08:34:08.122Z,69.69
2022-09-06T08:36:37.830Z,70.22
2022-09-06T08:39:11.117Z,72.75
2022-09-06T08:41:50.887Z,71.99
2022-09-06T08:47:16.503Z,73.55
2022-09-06T08:49:52.497Z,73.81
2022-09-06T08:53:17.145Z,74.69
2022-09-06T08:55:54.650Z,76.10
2022-09-06T08:58:45.312Z,75.52
2022-09-06T09:01:18.673Z,74.50
2022-09-06T09:03:50.908Z,74.58
2022-09-06T09:06:29.196Z,73.78
2022-09-06T09:09:06.100Z,71.44
2022-09-06T09:11:37.477Z,68.78
2022-09-06T09:14:14.084Z,67.33
2022-09-06T09:16:43.526Z,67.08
2022-09-06T09:19:12.979Z,67.32
2022-09-06T09:21:50.042Z,67.95
2022-09-06T09:24:19.237Z,66.54
2022-09-06T09:26:58.378Z,66.63
2022-09-06T09:29:30.281Z,66.72
2022-09-06T09:32:06.453Z,67.32
2022-09-06T09:34:37.622Z,65.64
2022-09-06T09:40:14.794Z,64.24
2022-09-06T09:42:44.642Z,63.47
2022-09-06T09:45:29.148Z,63.42
2022-09-06T09:47:59.094Z,62.80
2022-09-06T09:50:31.016Z,62.67
2022-09-06T09:53:09.769Z,61.44
2022-09-06T09:55:39.369Z,62.36
2022-09-06T09:58:17.584Z,63.49
2022-09-06T10:00:46.969Z,63.28
2022-09-06T10:03:18.651Z,63.34
2022-09-06T10:06:02.420Z,63.51
2022-09-06T10:08:36.246Z,62.96
2022-09-06T10:11:05.825Z,63.07
2022-09-06T10:13:36.113Z,63.22
2022-09-06T10:16:06.132Z,63.41
2022-09-06T10:18:37.472Z,63.09
2022-09-06T10:21:13.047Z,63.09
2022-09-06T10:26:55.742Z,64.97
2022-09-06T10:29:36.524Z,64.91
2022-09-06T10:32:30.804Z,65.25
2022-09-06T10:35:11.196Z,65.21
2022-09-06T10:37:50.396Z,64.48
2022-09-06T10:40:35.125Z,63.37
2022-09-06T10:43:08.402Z,64.12
2022-09-06T10:45:47.780Z,64.43
2022-09-06T10:48:33.262Z,65.09
2022-09-06T10:51:08.858Z,63.11
2022-09-06T10:53:46.399Z,63.23
2022-09-06T10:56:22.005Z,62.90
2022-09-06T11:01:58.698Z,63.24
2022-09-06T11:04:33.476Z,62.76
2022-09-06T11:07:07.102Z,62.40
2022-09-06T11:09:41.381Z,62.28
2022-09-06T11:12:17.927Z,62.74
2022-09-06T11:14:48.352Z,62.68
2022-09-06T11:17:28.109Z,62.08
2022-09-06T11:20:08.802Z,61.72
2022-09-06T11:23:03.225Z,62.02
2022-09-06T11:25:59.785Z,61.81
2022-09-06T11:28:37.423Z,61.20
2022-09-06T11:31:08.379Z,61.79
2022-09-06T11:33:39.504Z,63.08
2022-09-06T11:36:32.008Z,63.62
2022-09-06T11:39:04.330Z,64.70
2022-09-06T11:41:36.324Z,65.21
2022-09-06T11:44:08.330Z,66.41
2022-09-06T11:47:01.021Z,66.06
2022-09-06T11:49:36.873Z,64.47
2022-09-06T11:52:35.701Z,64.00
2022-09-06T11:55:05.444Z,63.36
2022-09-06T11:57:34.718Z,64.15
2022-09-06T12:00:23.965Z,65.41
2022-09-06T12:02:53.789Z,65.59
2022-09-06T12:05:27.128Z,66.78
2022-09-06T12:08:16.006Z,66.39
2022-09-06T12:10:57.348Z,66.85
2022-09-06T12:13:43.139Z,66.59
2022-09-06T12:16:16.473Z,65.80
2022-09-06T12:19:04.407Z,65.70
2022-09-06T12:21:51.952Z,65.53
2022-09-06T12:24:50.967Z,65.25
2022-09-06T12:27:22.073Z,65.00
2022-09-06T12:29:54.568Z,65.08
2022-09-06T12:32:36.986Z,65.65
2022-09-06T12:38:02.992Z,66.46
2022-09-06T12:40:35.760Z,66.71
2022-09-06T12:43:07.133Z,65.79
2022-09-06T12:45:36.410Z,66.16
2022-09-06T12:48:10.415Z,65.52
2022-09-06T12:57:17.130Z,63.75
2022-09-06T12:59:50.901Z,64.76
2022-09-06T13:02:24.579Z,62.13
2022-09-06T13:05:00.826Z,62.67
2022-09-06T13:07:31.330Z,62.51
2022-09-06T13:10:02.298Z,61.85
2022-09-06T13:12:37.147Z,61.32
2022-09-06T13:15:13.425Z,60.95
2022-09-06T13:17:54.335Z,61.08
2022-09-06T13:20:27.381Z,61.94
2022-09-06T13:23:09.208Z,61.63
2022-09-06T13:25:49.936Z,63.14
2022-09-06T13:28:31.930Z,63.59
2022-09-06T13:31:07.567Z,64.18
2022-09-06T13:36:24.331Z,65.79
2022-09-06T13:38:54.170Z,65.75
2022-09-06T13:41:43.937Z,66.09
2022-09-06T13:44:30.678Z,65.53
2022-09-06T13:47:00.256Z,66.97
2022-09-06T13:49:29.936Z,67.29
2022-09-06T13:52:02.041Z,68.01
2022-09-06T13:54:31.883Z,68.72
2022-09-06T13:57:06.252Z,69.62
2022-09-06T13:59:37.861Z,71.24
2022-09-06T14:02:10.048Z,71.07
2022-09-06T14:04:40.020Z,71.50
2022-09-06T14:07:09.293Z,71.25
2022-09-06T14:09:39.077Z,71.21
2022-09-06T14:12:21.526Z,72.11
2022-09-06T14:15:02.390Z,72.47
2022-09-06T14:20:09.084Z,72.36
2022-09-06T14:22:38.688Z,73.47
2022-09-06T14:25:09.101Z,74.29
2022-09-06T14:27:38.304Z,74.34
2022-09-06T14:30:11.040Z,74.30
2022-09-06T14:32:40.247Z,74.59
2022-09-06T14:35:10.377Z,74.46
2022-09-06T14:37:44.738Z,74.59
2022-09-06T14:40:26.810Z,75.04
2022-09-06T14:42:55.740Z,74.03
2022-09-06T14:45:28.498Z,74.92
2022-09-06T14:47:57.608Z,74.90
2022-09-06T14:50:27.039Z,75.89
2022-09-06T14:52:56.438Z,77.12
2022-09-06T14:55:27.653Z,77.28
2022-09-06T14:57:56.955Z,77.90
2022-09-06T15:00:28.309Z,78.85
2022-09-06T15:02:57.623Z,78.33
2022-09-06T15:05:26.882Z,78.76
2022-09-06T15:07:56.122Z,78.27
2022-09-06T15:10:26.037Z,77.31
2022-09-06T15:12:56.012Z,77.30
2022-09-06T15:15:25.429Z,76.67
2022-09-06T15:17:57.192Z,76.89
2022-09-06T15:20:26.234Z,76.19
2022-09-06T15:23:21.699Z,76.21
2022-09-06T15:25:56.722Z,76.91
2022-09-06T15:28:25.959Z,77.02
2022-09-06T15:31:01.735Z,77.24
2022-09-06T15:33:35.193Z,76.84
2022-09-06T15:36:07.757Z,76.13
2022-09-06T15:38:37.690Z,76.07
2022-09-06T15:41:08.858Z,76.06
2022-09-06T15:43:41.708Z,75.95
2022-09-06T15:46:11.601Z,75.80
2022-09-06T15:48:45.789Z,75.31
2022-09-06T15:51:22.086Z,74.86
2022-09-06T15:53:51.540Z,74.44
2022-09-06T15:56:20.752Z,73.84
2022-09-06T15:58:55.194Z,73.59
2022-09-06T16:01:32.353Z,73.48
2022-09-06T16:04:05.806Z,72.82
2022-09-06T16:06:37.791Z,71.70
2022-09-06T16:09:15.179Z,71.36
2022-09-06T16:11:44.753Z,70.18
2022-09-06T16:14:15.755Z,69.59
2022-09-06T16:16:45.206Z,69.04
2022-09-06T16:19:18.042Z,68.54
2022-09-06T16:21:47.663Z,68.47
2022-09-06T16:24:18.134Z,68.23
2022-09-06T16:26:53.460Z,67.88
2022-09-06T16:29:27.939Z,68.47
2022-09-06T16:31:59.704Z,67.77
2022-09-06T16:34:31.018Z,67.48
2022-09-06T16:37:08.931Z,67.69
2022-09-06T16:39:38.690Z,67.01
2022-09-06T16:42:08.521Z,66.96
2022-09-06T16:44:40.145Z,66.73
2022-09-06T16:47:16.764Z,67.03
2022-09-06T16:49:48.716Z,67.21
2022-09-06T16:52:18.218Z,67.48
2022-09-06T16:54:47.931Z,67.30
2022-09-06T16:57:17.144Z,66.58
2022-09-06T16:59:46.374Z,66.30
2022-09-06T17:02:15.959Z,66.00
2022-09-06T17:04:45.382Z,66.48
2022-09-06T17:07:17.979Z,66.36
2022-09-06T17:09:47.615Z,66.29
2022-09-06T17:12:16.915Z,66.88
2022-09-06T17:14:46.257Z,66.72
2022-09-06T17:17:17.393Z,67.14
2022-09-06T17:19:46.705Z,66.92
2022-09-06T17:22:17.847Z,67.51
2022-09-06T17:24:52.397Z,67.66
2022-09-06T17:27:21.746Z,68.34
2022-09-06T17:29:51.398Z,68.38
2022-09-06T17:32:20.689Z,68.56
2022-09-06T17:34:49.966Z,69.04
2022-09-06T17:37:23.194Z,69.11
2022-09-06T17:39:52.525Z,69.92
2022-09-06T17:42:21.794Z,70.12
2022-09-06T17:44:50.984Z,70.44
2022-09-06T17:47:20.266Z,70.10
2022-09-06T17:49:49.743Z,70.25
2022-09-06T17:52:21.021Z,70.68
2022-09-06T17:54:50.527Z,71.11
2022-09-06T17:57:19.744Z,70.78
2022-09-06T17:59:54.350Z,71.16
2022-09-06T18:02:26.261Z,71.12
2022-09-06T18:05:01.971Z,70.67
2022-09-06T18:07:34.543Z,71.18
2022-09-06T18:10:03.989Z,71.57
2022-09-06T18:12:33.950Z,71.11
2022-09-06T18:15:04.981Z,71.54
2022-09-06T18:20:19.958Z,71.25
2022-09-06T18:22:51.226Z,71.10
2022-09-06T18:25:21.066Z,71.39
2022-09-06T18:27:58.704Z,70.64
2022-09-06T18:30:30.875Z,71.25
2022-09-06T18:33:00.410Z,70.80
2022-09-06T18:35:42.521Z,70.66
2022-09-06T18:38:14.617Z,71.15
2022-09-06T18:40:52.333Z,70.61
2022-09-06T18:43:22.166Z,70.71
2022-09-06T18:45:52.088Z,70.24
2022-09-06T18:48:26.919Z,70.37
2022-09-06T18:50:59.760Z,70.71
2022-09-06T18:53:32.162Z,70.38
2022-09-06T18:56:01.927Z,69.97
2022-09-06T18:58:31.310Z,70.23
2022-09-06T19:01:06.232Z,70.24
2022-09-06T19:03:36.675Z,70.23
2022-09-06T19:06:07.413Z,70.78
2022-09-06T19:08:39.495Z,70.63
2022-09-06T19:11:18.531Z,71.34
2022-09-06T19:13:51.725Z,70.99
2022-09-06T19:16:22.078Z,71.44
2022-09-06T19:18:54.829Z,71.62
2022-09-06T19:21:27.573Z,71.38
2022-09-06T19:24:14.163Z,71.39
2022-09-06T19:26:46.555Z,71.08
2022-09-06T19:29:17.538Z,71.27
2022-09-06T19:31:54.511Z,71.18
2022-09-06T19:34:29.059Z,70.84
2022-09-06T19:36:58.348Z,71.10
2022-09-06T19:39:36.233Z,71.39
2022-09-06T19:42:11.869Z,70.49
2022-09-06T19:44:46.063Z,70.98
2022-09-06T19:47:15.515Z,70.91
2022-09-06T19:49:44.746Z,71.17
2022-09-06T19:52:14.708Z,71.11
2022-09-06T19:54:46.182Z,70.81
2022-09-06T19:57:15.431Z,71.11
2022-09-06T19:59:44.554Z,70.72
2022-09-06T20:02:14.174Z,70.74
2022-09-06T20:04:43.437Z,70.88
2022-09-06T20:07:12.718Z,70.92
2022-09-06T20:09:42.035Z,71.06
2022-09-06T20:12:13.265Z,71.14
2022-09-06T20:14:42.877Z,71.45
2022-09-06T20:17:32.967Z,71.03
2022-09-06T20:20:02.292Z,71.28
2022-09-06T20:22:32.820Z,71.90
2022-09-06T20:25:02.149Z,71.64
2022-09-06T20:27:34.602Z,71.79
2022-09-06T20:30:09.964Z,72.23
2022-09-06T20:32:39.260Z,72.54
2022-09-06T20:35:10.263Z,72.33
2022-09-06T20:37:47.170Z,71.87
2022-09-06T20:40:16.734Z,71.88
2022-09-06T20:42:48.075Z,71.65
2022-09-06T20:45:18.824Z,71.92
2022-09-06T20:47:56.529Z,72.67
2022-09-06T20:50:30.261Z,73.22
2022-09-06T20:52:59.755Z,73.12
2022-09-06T20:55:29.115Z,74.25
2022-09-06T20:58:00.627Z,75.06
2022-09-06T21:00:30.095Z,75.49
2022-09-06T21:03:00.777Z,75.46
2022-09-06T21:05:30.575Z,75.75
2022-09-06T21:07:59.874Z,76.08
2022-09-06T21:10:36.080Z,75.92
2022-09-06T21:13:07.461Z,76.18
2022-09-06T21:15:43.060Z,76.20
2022-09-06T21:18:13.619Z,76.18
2022-09-06T21:20:57.729Z,76.13
2022-09-06T21:23:28.215Z,75.50
2022-09-06T21:25:58.806Z,75.88
2022-09-06T21:28:36.646Z,75.16
2022-09-06T21:31:08.725Z,75.27
2022-09-06T21:33:40.121Z,75.02
2022-09-06T21:36:11.085Z,74.52
2022-09-06T21:38:41.943Z,73.53
2022-09-06T21:41:12.361Z,73.94
2022-09-06T21:43:43.830Z,74.01
2022-09-06T21:46:31.746Z,73.83
2022-09-06T21:49:06.795Z,74.04
2022-09-06T21:51:41.943Z,73.94
2022-09-06T21:54:11.299Z,73.92
2022-09-06T21:56:52.073Z,73.73
2022-09-06T21:59:23.539Z,74.04
2022-09-06T22:01:59.612Z,74.06
2022-09-06T22:04:29.195Z,74.10
2022-09-06T22:06:58.341Z,74.20
2022-09-06T22:09:32.784Z,73.93
2022-09-06T22:12:02.150Z,74.20
2022-09-06T22:14:38.517Z,74.08
2022-09-06T22:17:07.829Z,74.29
2022-09-06T22:19:37.016Z,74.44
2022-09-06T22:22:06.364Z,74.73
2022-09-06T22:24:35.723Z,74.71
2022-09-06T22:27:10.078Z,74.21
2022-09-06T22:29:41.385Z,74.47
2022-09-06T22:32:19.022Z,74.53
2022-09-06T22:34:48.493Z,74.08
2022-09-06T22:37:18.421Z,73.69
2022-09-06T22:39:47.929Z,74.10
2022-09-06T22:42:17.271Z,74.11
2022-09-06T22:44:53.745Z,74.52
2022-09-06T22:47:23.383Z,74.05
2022-09-06T22:49:52.629Z,74.57
2022-09-06T22:52:22.434Z,75.01
2022-09-06T22:54:51.578Z,74.33
2022-09-06T22:57:20.849Z,74.78
2022-09-06T22:59:50.035Z,74.91
2022-09-06T23:02:26.230Z,74.69
2022-09-06T23:04:56.379Z,74.71
2022-09-06T23:07:25.907Z,74.64
2022-09-06T23:09:55.132Z,74.80
2022-09-06T23:12:24.367Z,74.94
2022-09-06T23:14:58.498Z,75.33
2022-09-06T23:17:31.317Z,75.64
2022-09-06T23:20:05.943Z,75.43
2022-09-06T23:22:41.040Z,75.62
2022-09-06T23:25:11.334Z,76.08
2022-09-06T23:27:40.480Z,75.78
2022-09-06T23:30:11.188Z,75.79
2022-09-06T23:32:42.445Z,76.32
2022-09-06T23:35:12.304Z,75.96
2022-09-06T23:37:41.759Z,76.31
2022-09-06T23:40:12.125Z,76.94
2022-09-06T23:42:41.497Z,76.96
2022-09-06T23:45:11.770Z,76.96
2022-09-06T23:47:43.068Z,77.42
2022-09-06T23:50:12.534Z,77.84
2022-09-06T23:52:52.286Z,78.50
2022-09-06T23:55:21.497Z,78.47
2022-09-06T23:57:50.698Z,78.80
